Black_sea_s — ERZW — position and weather

sailwx.info

Track history (hours):
 
Tides and Currents Weather Stations Pressure Air Temp Water Temp Dewpoint Dewpoint Depression Visibility Wind Speed Wind Dir Waves Ship Positions

Black_sea_s

Last reported at 2017-Oct-19 20:00 UTC. Time now 2017-Oct-19 20:04 UTC.
Position N 44°06' E 028°39'.

Length 105 m; draft 5.4 m.

Type: Cargo ship. MMSI: 214182623.

Date/timePositionNaut miles runAvg speedWind from/ knotsBaromVisibWave heightAir tempDewpointWater temp
2017-Oct-19 20:00N 44°06' E 028°39'0 0.0
2017-Oct-19 19:30N 44°06' E 028°39'0 0.0
2017-Oct-19 19:00N 44°06' E 028°39'0 0.0
2017-Oct-19 18:30N 44°06' E 028°39'0 0.0
2017-Oct-19 18:00N 44°06' E 028°39'0 0.0
2017-Oct-19 17:30N 44°06' E 028°39'0 0.6
2017-Oct-19 17:00N 44°06' E 028°39'2 4.5
2017-Oct-19 16:30N 44°06' E 028°42'3 6.7
2017-Oct-19 16:00N 44°04' E 028°45'4 8.3
2017-Oct-19 15:30N 44°01' E 028°49'5 9.2
2017-Oct-19 15:00N 43°57' E 028°53'5 9.2
2017-Oct-19 14:30N 43°53' E 028°56'5 9.3
2017-Oct-19 14:00N 43°49' E 028°59'5 9.3
2017-Oct-19 13:30N 43°45' E 029°02'5 9.3
2017-Oct-19 13:00N 43°41' E 029°05'5 9.3
2017-Oct-19 12:30N 43°37' E 029°09'5 9.1
2017-Oct-19 12:00N 43°33' E 029°12'4 9.0
2017-Oct-19 11:30N 43°29' E 029°15'5 9.3
2017-Oct-19 11:00N 43°25' E 029°19'5 9.4
2017-Oct-19 10:30N 43°21' E 029°22'5 9.4
2017-Oct-19 10:00N 43°17' E 029°25'5 9.5
2017-Oct-19 09:30N 43°13' E 029°28'5 9.5
2017-Oct-19 09:00N 43°09' E 029°32'5 9.6
2017-Oct-19 08:30N 43°06' E 029°37'5 9.5
2017-Oct-19 08:00N 43°02' E 029°42'5 9.6
2017-Oct-19 07:30N 42°59' E 029°46'5 9.3
2017-Oct-19 07:00N 42°55' E 029°50'5 9.3
2017-Oct-19 06:30N 42°52' E 029°54'5 9.4
2017-Oct-19 06:00N 42°48' E 029°58'5 9.3
2017-Oct-19 05:30N 42°44' E 030°01'5 9.4
2017-Oct-19 05:00N 42°40' E 030°05'5 9.4
2017-Oct-19 04:30N 42°36' E 030°08'5 9.4
2017-Oct-19 04:00N 42°32' E 030°12'5 9.4
2017-Oct-19 03:30N 42°28' E 030°16'5 9.4
2017-Oct-19 03:00N 42°25' E 030°19'5 9.5
2017-Oct-19 02:30N 42°21' E 030°23'5 9.5
2017-Oct-19 02:00N 42°17' E 030°26'5 9.5
2017-Oct-19 01:30N 42°13' E 030°30'5 9.5
2017-Oct-19 01:00N 42°09' E 030°34'65 5.3
2017-Oct-18 12:36N 41°16' E 031°25'0 0.1
2017-Oct-18 12:29N 41°16' E 031°25'0 0.0
2017-Oct-18 11:48N 41°16' E 031°25'0 0.0
2017-Oct-18 11:30N 41°16' E 031°25'0 0.0
2017-Oct-18 11:00N 41°16' E 031°25'0 0.0
2017-Oct-18 10:30N 41°16' E 031°25'0 0.0
2017-Oct-18 10:00N 41°16' E 031°25'  
2017-Oct-14 11:20N 40°59' E 028°60'3 7.0
2017-Oct-14 10:53N 40°56' E 028°60'3 7.3
2017-Oct-14 10:26N 40°53' E 029°01'3 7.7
2017-Oct-14 10:00N 40°50' E 029°04'4 7.2
2017-Oct-14 09:30N 40°49' E 029°08'3 6.0
2017-Oct-14 08:59N 40°51' E 029°11'0 0.1
2017-Oct-14 08:30N 40°51' E 029°11'0 0.2
2017-Oct-14 08:00N 40°51' E 029°11'0 0.1
2017-Oct-14 07:30N 40°51' E 029°11'0 0.0
2017-Oct-14 07:00N 40°51' E 029°11'0 0.0
2017-Oct-14 06:30N 40°51' E 029°11'0 0.0
2017-Oct-14 06:00N 40°51' E 029°11'0 0.0
2017-Oct-14 05:30N 40°51' E 029°11'0 0.0
2017-Oct-14 04:59N 40°51' E 029°11'0 0.0
2017-Oct-14 04:30N 40°51' E 029°11'0 0.0
2017-Oct-14 04:00N 40°51' E 029°11'0 0.0
2017-Oct-14 03:30N 40°51' E 029°11'0 0.0
2017-Oct-14 03:00N 40°51' E 029°11'0 0.0
2017-Oct-14 02:30N 40°51' E 029°11'0 0.1
2017-Oct-14 02:00N 40°51' E 029°11'3 5.6
2017-Oct-14 01:30N 40°49' E 029°09'5 9.5
2017-Oct-14 01:00N 40°47' E 029°03'5 9.1
2017-Oct-14 00:30N 40°47' E 028°57'5 9.4
2017-Oct-14 00:00N 40°47' E 028°51'6 9.7
2017-Oct-13 23:24N 40°48' E 028°43'30 9.9
2017-Oct-13 20:24N 40°45' E 028°04'410.0
2017-Oct-13 20:00N 40°45' E 027°59'5 9.6
2017-Oct-13 19:29N 40°44' E 027°52'  
Track history (hours):
 
Tides and Currents Weather Stations Pressure Air Temp Water Temp Dewpoint Dewpoint Depression Visibility Wind Speed Wind Dir Waves Ship Positions

Black_sea_s

Last reported at 2017-Oct-19 20:00 UTC. Time now 2017-Oct-19 20:04 UTC.
Position N 44°06' E 028°39'.

Length 105 m; draft 5.4 m.

Type: Cargo ship. MMSI: 214182623.

Date/timePositionNaut miles runAvg speedWind from/ knotsBaromVisibWave heightAir tempDewpointWater temp
2017-Oct-19 20:00N 44°06' E 028°39'0 0.0
2017-Oct-19 19:30N 44°06' E 028°39'0 0.0
2017-Oct-19 19:00N 44°06' E 028°39'0 0.0
2017-Oct-19 18:30N 44°06' E 028°39'0 0.0
2017-Oct-19 18:00N 44°06' E 028°39'0 0.0
2017-Oct-19 17:30N 44°06' E 028°39'0 0.6
2017-Oct-19 17:00N 44°06' E 028°39'2 4.5
2017-Oct-19 16:30N 44°06' E 028°42'3 6.7
2017-Oct-19 16:00N 44°04' E 028°45'4 8.3
2017-Oct-19 15:30N 44°01' E 028°49'5 9.2
2017-Oct-19 15:00N 43°57' E 028°53'5 9.2
2017-Oct-19 14:30N 43°53' E 028°56'5 9.3
2017-Oct-19 14:00N 43°49' E 028°59'5 9.3
2017-Oct-19 13:30N 43°45' E 029°02'5 9.3
2017-Oct-19 13:00N 43°41' E 029°05'5 9.3
2017-Oct-19 12:30N 43°37' E 029°09'5 9.1
2017-Oct-19 12:00N 43°33' E 029°12'4 9.0
2017-Oct-19 11:30N 43°29' E 029°15'5 9.3
2017-Oct-19 11:00N 43°25' E 029°19'5 9.4
2017-Oct-19 10:30N 43°21' E 029°22'5 9.4
2017-Oct-19 10:00N 43°17' E 029°25'5 9.5
2017-Oct-19 09:30N 43°13' E 029°28'5 9.5
2017-Oct-19 09:00N 43°09' E 029°32'5 9.6
2017-Oct-19 08:30N 43°06' E 029°37'5 9.5
2017-Oct-19 08:00N 43°02' E 029°42'5 9.6
2017-Oct-19 07:30N 42°59' E 029°46'5 9.3
2017-Oct-19 07:00N 42°55' E 029°50'5 9.3
2017-Oct-19 06:30N 42°52' E 029°54'5 9.4
2017-Oct-19 06:00N 42°48' E 029°58'5 9.3
2017-Oct-19 05:30N 42°44' E 030°01'5 9.4
2017-Oct-19 05:00N 42°40' E 030°05'5 9.4
2017-Oct-19 04:30N 42°36' E 030°08'5 9.4
2017-Oct-19 04:00N 42°32' E 030°12'5 9.4
2017-Oct-19 03:30N 42°28' E 030°16'5 9.4
2017-Oct-19 03:00N 42°25' E 030°19'5 9.5
2017-Oct-19 02:30N 42°21' E 030°23'5 9.5
2017-Oct-19 02:00N 42°17' E 030°26'5 9.5
2017-Oct-19 01:30N 42°13' E 030°30'5 9.5
2017-Oct-19 01:00N 42°09' E 030°34'65 5.3
2017-Oct-18 12:36N 41°16' E 031°25'0 0.1
2017-Oct-18 12:29N 41°16' E 031°25'0 0.0
2017-Oct-18 11:48N 41°16' E 031°25'0 0.0
2017-Oct-18 11:30N 41°16' E 031°25'0 0.0
2017-Oct-18 11:00N 41°16' E 031°25'0 0.0
2017-Oct-18 10:30N 41°16' E 031°25'0 0.0
2017-Oct-18 10:00N 41°16' E 031°25'  
2017-Oct-14 11:20N 40°59' E 028°60'3 7.0
2017-Oct-14 10:53N 40°56' E 028°60'3 7.3
2017-Oct-14 10:26N 40°53' E 029°01'3 7.7
2017-Oct-14 10:00N 40°50' E 029°04'4 7.2
2017-Oct-14 09:30N 40°49' E 029°08'3 6.0
2017-Oct-14 08:59N 40°51' E 029°11'0 0.1
2017-Oct-14 08:30N 40°51' E 029°11'0 0.2
2017-Oct-14 08:00N 40°51' E 029°11'0 0.1
2017-Oct-14 07:30N 40°51' E 029°11'0 0.0
2017-Oct-14 07:00N 40°51' E 029°11'0 0.0
2017-Oct-14 06:30N 40°51' E 029°11'0 0.0
2017-Oct-14 06:00N 40°51' E 029°11'0 0.0
2017-Oct-14 05:30N 40°51' E 029°11'0 0.0
2017-Oct-14 04:59N 40°51' E 029°11'0 0.0
2017-Oct-14 04:30N 40°51' E 029°11'0 0.0
2017-Oct-14 04:00N 40°51' E 029°11'0 0.0
2017-Oct-14 03:30N 40°51' E 029°11'0 0.0
2017-Oct-14 03:00N 40°51' E 029°11'0 0.0
2017-Oct-14 02:30N 40°51' E 029°11'0 0.1
2017-Oct-14 02:00N 40°51' E 029°11'3 5.6
2017-Oct-14 01:30N 40°49' E 029°09'5 9.5
2017-Oct-14 01:00N 40°47' E 029°03'5 9.1
2017-Oct-14 00:30N 40°47' E 028°57'5 9.4
2017-Oct-14 00:00N 40°47' E 028°51'6 9.7
2017-Oct-13 23:24N 40°48' E 028°43'30 9.9
2017-Oct-13 20:24N 40°45' E 028°04'410.0
2017-Oct-13 20:00N 40°45' E 027°59'5 9.6
2017-Oct-13 19:29N 40°44' E 027°52'  

Dump ship's entire track history